createdAt,value
2023-10-12T00:01:02.359Z,8
2023-10-12T00:03:33.006Z,8
2023-10-12T00:06:03.625Z,8
2023-10-12T00:08:34.425Z,8
2023-10-12T00:11:05.145Z,8
2023-10-12T00:13:35.630Z,8
2023-10-12T00:16:06.313Z,8
2023-10-12T00:18:36.799Z,4
2023-10-12T00:21:07.201Z,6
2023-10-12T00:23:37.989Z,8
2023-10-12T00:26:08.439Z,8
2023-10-12T00:28:39.610Z,8
2023-10-12T00:31:10.052Z,8
2023-10-12T00:33:40.958Z,4
2023-10-12T00:36:10.127Z,8
2023-10-12T00:38:40.331Z,6
2023-10-12T00:41:11.247Z,8
2023-10-12T00:43:42.228Z,8
2023-10-12T00:46:12.683Z,5
2023-10-12T00:48:43.341Z,8
2023-10-12T00:51:14.655Z,4
2023-10-12T00:53:45.140Z,4
2023-10-12T00:56:15.724Z,5
2023-10-12T00:58:46.305Z,4
2023-10-12T01:01:17.832Z,4
2023-10-12T01:03:46.388Z,4
2023-10-12T01:06:16.950Z,4
2023-10-12T01:08:46.201Z,4
2023-10-12T01:11:17.128Z,4
2023-10-12T01:13:48.066Z,4
2023-10-12T01:16:18.750Z,4
2023-10-12T01:18:49.440Z,4
2023-10-12T01:21:20.279Z,4
2023-10-12T01:23:50.586Z,4
2023-10-12T01:26:22.405Z,4
2023-10-12T01:28:53.640Z,4
2023-10-12T01:31:24.664Z,4
2023-10-12T01:33:53.869Z,8
2023-10-12T01:36:24.773Z,6
2023-10-12T01:38:55.641Z,4
2023-10-12T01:41:26.726Z,4
2023-10-12T01:43:57.337Z,4
2023-10-12T01:46:27.909Z,4
2023-10-12T01:48:58.578Z,4
2023-10-12T01:51:30.119Z,8
2023-10-12T01:54:01.940Z,4
2023-10-12T01:56:32.872Z,8
2023-10-12T01:59:03.919Z,4
2023-10-12T02:01:34.929Z,4
2023-10-12T02:04:05.598Z,6
2023-10-12T02:06:36.557Z,4
2023-10-12T02:09:07.568Z,4
2023-10-12T02:11:38.541Z,4
2023-10-12T02:14:09.253Z,4
2023-10-12T02:16:40.321Z,4
2023-10-12T02:19:10.899Z,4
2023-10-12T02:21:41.279Z,4
2023-10-12T02:24:11.787Z,4
2023-10-12T02:26:42.477Z,8
2023-10-12T02:29:13.701Z,8
2023-10-12T02:31:45.054Z,4
2023-10-12T02:34:15.367Z,8
2023-10-12T02:36:46.438Z,4
2023-10-12T02:39:17.233Z,7
2023-10-12T02:41:48.164Z,4
2023-10-12T02:44:18.916Z,8
2023-10-12T02:46:49.528Z,4
2023-10-12T02:49:20.428Z,7
2023-10-12T02:51:51.514Z,5
2023-10-12T02:54:22.007Z,4
2023-10-12T02:56:52.873Z,4
2023-10-12T02:59:24.342Z,8
2023-10-12T03:01:55.634Z,7
2023-10-12T03:04:26.390Z,4
2023-10-12T03:06:57.022Z,8
2023-10-12T03:09:27.472Z,8
2023-10-12T03:11:58.458Z,5
2023-10-12T03:14:28.954Z,4
2023-10-12T03:17:00.179Z,8
2023-10-12T03:19:30.870Z,4
2023-10-12T03:22:01.544Z,4
2023-10-12T03:24:32.566Z,8
2023-10-12T03:27:03.786Z,4
2023-10-12T03:29:34.340Z,7
2023-10-12T03:32:05.489Z,7
2023-10-12T03:34:35.147Z,8
2023-10-12T03:37:06.240Z,8
2023-10-12T03:39:36.469Z,4
2023-10-12T03:42:06.929Z,8
2023-10-12T03:44:37.638Z,8
2023-10-12T03:47:08.506Z,8
2023-10-12T03:49:39.624Z,6
2023-10-12T03:52:10.189Z,8
2023-10-12T03:54:40.712Z,4
2023-10-12T03:57:11.692Z,4
2023-10-12T03:59:42.870Z,8
2023-10-12T04:02:13.918Z,8
2023-10-12T04:04:45.035Z,8
2023-10-12T04:07:13.165Z,8
2023-10-12T04:09:44.230Z,8
2023-10-12T04:12:14.609Z,8
2023-10-12T04:14:45.334Z,12
2023-10-12T04:17:16.112Z,8
2023-10-12T04:19:46.714Z,12
2023-10-12T04:22:17.095Z,12
2023-10-12T04:24:48.145Z,8
2023-10-12T04:27:19.046Z,8
2023-10-12T04:29:49.880Z,10
2023-10-12T04:32:20.762Z,8
2023-10-12T04:34:51.866Z,8
2023-10-12T04:37:22.896Z,8
2023-10-12T04:39:53.310Z,8
2023-10-12T04:42:23.702Z,12
2023-10-12T04:44:54.644Z,8
2023-10-12T04:47:25.717Z,16
2023-10-12T04:49:56.368Z,16
2023-10-12T04:52:27.584Z,8
2023-10-12T04:54:58.200Z,14
2023-10-12T04:57:29.398Z,12
2023-10-12T04:59:59.647Z,12
2023-10-12T05:02:33.619Z,8
2023-10-12T05:05:01.431Z,8
2023-10-12T05:07:32.253Z,8
2023-10-12T05:10:03.431Z,8
2023-10-12T05:12:34.455Z,14
2023-10-12T05:15:05.687Z,10
2023-10-12T05:17:36.869Z,12
2023-10-12T05:20:07.526Z,12
2023-10-12T05:22:38.405Z,12
2023-10-12T05:25:09.280Z,8
2023-10-12T05:27:40.381Z,12
2023-10-12T05:30:10.941Z,8
2023-10-12T05:32:42.030Z,12
2023-10-12T05:35:13.026Z,12
2023-10-12T05:37:43.466Z,12
2023-10-12T05:40:14.324Z,12
2023-10-12T05:42:46.938Z,16
2023-10-12T05:45:16.041Z,12
2023-10-12T05:47:45.062Z,12
2023-10-12T05:50:15.740Z,8
2023-10-12T05:52:46.690Z,14
2023-10-12T05:55:17.130Z,12
2023-10-12T05:57:48.353Z,12
2023-10-12T06:00:19.322Z,15
2023-10-12T06:02:50.375Z,12
2023-10-12T06:05:21.474Z,12
2023-10-12T06:07:51.921Z,12
2023-10-12T06:10:22.379Z,12
2023-10-12T06:12:53.215Z,12
2023-10-12T06:15:23.576Z,10
2023-10-12T06:17:58.178Z,12
2023-10-12T06:20:29.200Z,16
2023-10-12T06:22:59.460Z,12
2023-10-12T06:25:30.163Z,12
2023-10-12T06:28:00.558Z,12
2023-10-12T06:30:31.284Z,11
2023-10-12T06:33:02.577Z,8
2023-10-12T06:35:33.818Z,12
2023-10-12T06:38:04.454Z,12
2023-10-12T06:40:38.691Z,10
2023-10-12T06:43:07.432Z,8
2023-10-12T06:45:38.134Z,11
2023-10-12T06:48:08.653Z,12
2023-10-12T06:50:39.357Z,12
2023-10-12T06:53:11.854Z,12
2023-10-12T06:55:40.314Z,16
2023-10-12T06:58:09.441Z,12
2023-10-12T07:00:38.247Z,12
2023-10-12T07:03:07.426Z,16
2023-10-12T07:05:37.949Z,20
2023-10-12T07:08:09.151Z,12
2023-10-12T07:10:40.241Z,12
2023-10-12T07:13:10.690Z,12
2023-10-12T07:15:41.416Z,12
2023-10-12T07:18:12.429Z,20
2023-10-12T07:20:43.503Z,13
2023-10-12T07:23:14.361Z,12
2023-10-12T07:25:45.211Z,12
2023-10-12T07:28:15.843Z,15
2023-10-12T07:30:46.408Z,13
2023-10-12T07:33:20.476Z,8
2023-10-12T07:35:51.446Z,16
2023-10-12T07:38:21.971Z,8
2023-10-12T07:40:52.372Z,12
2023-10-12T07:43:23.046Z,16
2023-10-12T07:45:53.642Z,12
2023-10-12T07:48:23.961Z,12
2023-10-12T07:50:54.435Z,15
2023-10-12T07:53:25.282Z,12
2023-10-12T07:55:56.771Z,12
2023-10-12T07:58:27.564Z,8
2023-10-12T08:01:01.223Z,12
2023-10-12T08:03:31.322Z,8
2023-10-12T08:06:01.780Z,11
2023-10-12T08:08:32.352Z,12
2023-10-12T08:11:02.660Z,10
2023-10-12T08:13:33.153Z,20
2023-10-12T08:16:04.050Z,12
2023-10-12T08:18:34.530Z,12
2023-10-12T08:21:05.623Z,12
2023-10-12T08:23:36.319Z,12
2023-10-12T08:26:06.967Z,8
2023-10-12T08:28:38.198Z,12
2023-10-12T08:31:11.953Z,12
2023-10-12T08:33:42.445Z,12
2023-10-12T08:36:12.917Z,8
2023-10-12T08:38:43.378Z,8
2023-10-12T08:41:13.887Z,8
2023-10-12T08:43:44.117Z,8
2023-10-12T08:46:15.783Z,8
2023-10-12T08:48:46.284Z,12
2023-10-12T08:51:17.359Z,8
2023-10-12T08:53:47.952Z,9
2023-10-12T08:56:18.571Z,16
2023-10-12T08:58:49.022Z,16
2023-10-12T09:01:20.460Z,12
2023-10-12T09:03:51.107Z,16
2023-10-12T09:06:21.560Z,12
2023-10-12T09:08:50.772Z,12
2023-10-12T09:11:21.466Z,12
2023-10-12T09:13:51.952Z,8
2023-10-12T09:16:22.693Z,16
2023-10-12T09:18:53.557Z,12
2023-10-12T09:21:24.033Z,17
2023-10-12T09:23:55.133Z,8
2023-10-12T09:26:28.733Z,8
2023-10-12T09:28:59.497Z,13
2023-10-12T09:31:30.145Z,8
2023-10-12T09:34:00.338Z,8
2023-10-12T09:36:31.231Z,8
2023-10-12T09:39:03.387Z,8
2023-10-12T09:41:34.283Z,8
2023-10-12T09:44:05.211Z,8
2023-10-12T09:46:35.559Z,12
2023-10-12T09:49:06.081Z,9
2023-10-12T09:51:36.835Z,11
2023-10-12T09:54:07.430Z,8
2023-10-12T09:56:37.686Z,8
2023-10-12T09:59:08.382Z,8
2023-10-12T10:01:39.111Z,10
2023-10-12T10:04:09.975Z,12
2023-10-12T10:06:40.595Z,8
2023-10-12T10:09:11.604Z,8
2023-10-12T10:11:42.298Z,12
2023-10-12T10:14:12.739Z,8
2023-10-12T10:16:42.888Z,8
2023-10-12T10:19:13.373Z,12
2023-10-12T10:21:44.742Z,12
2023-10-12T10:24:15.830Z,8
2023-10-12T10:26:46.730Z,8
2023-10-12T10:29:21.188Z,8
2023-10-12T10:31:52.072Z,8
2023-10-12T10:34:23.323Z,8
2023-10-12T10:36:54.796Z,8
2023-10-12T10:39:25.282Z,12
2023-10-12T10:41:55.859Z,11
2023-10-12T10:44:26.474Z,12
2023-10-12T10:46:57.410Z,9
2023-10-12T10:49:33.556Z,12
2023-10-12T10:51:58.140Z,8
2023-10-12T10:54:28.541Z,8
2023-10-12T10:56:59.245Z,12
2023-10-12T10:59:30.185Z,12
2023-10-12T11:02:01.673Z,12
2023-10-12T11:04:32.248Z,12
2023-10-12T11:07:02.812Z,8
2023-10-12T11:09:33.769Z,8
2023-10-12T11:12:04.080Z,8
2023-10-12T11:14:35.506Z,8
2023-10-12T11:17:06.562Z,12
2023-10-12T11:19:37.104Z,12
2023-10-12T11:22:09.010Z,8
2023-10-12T11:24:39.974Z,8
2023-10-12T11:27:10.723Z,8
2023-10-12T11:29:41.166Z,10
2023-10-12T11:32:11.844Z,11
2023-10-12T11:34:42.865Z,8
2023-10-12T11:37:13.344Z,9
2023-10-12T11:39:44.048Z,8
2023-10-12T11:42:13.050Z,11
2023-10-12T11:44:43.949Z,8
2023-10-12T11:47:14.806Z,9
2023-10-12T11:49:45.412Z,8
2023-10-12T11:52:16.568Z,8
2023-10-12T11:54:48.224Z,8
2023-10-12T11:57:17.895Z,8
2023-10-12T11:59:49.106Z,8
2023-10-12T12:02:20.101Z,8
2023-10-12T12:05:05.730Z,8
2023-10-12T12:07:21.489Z,7
2023-10-12T12:09:52.072Z,8
2023-10-12T12:12:22.478Z,8
2023-10-12T12:14:52.873Z,12
2023-10-12T12:17:24.126Z,8
2023-10-12T12:19:54.915Z,8
2023-10-12T12:22:25.847Z,8
2023-10-12T12:24:57.260Z,8
2023-10-12T12:27:28.328Z,4
2023-10-12T12:30:09.097Z,8
2023-10-12T12:32:30.337Z,8
2023-10-12T12:35:00.841Z,7
2023-10-12T12:37:31.342Z,4
2023-10-12T12:40:02.145Z,4
2023-10-12T12:42:32.951Z,8
2023-10-12T12:45:04.394Z,4
2023-10-12T12:47:36.296Z,4
2023-10-12T12:50:06.934Z,8
2023-10-12T12:52:39.807Z,6
2023-10-12T12:55:08.923Z,8
2023-10-12T12:57:39.859Z,8
2023-10-12T13:00:11.114Z,4
2023-10-12T13:02:42.145Z,4
2023-10-12T13:05:11.230Z,8
2023-10-12T13:07:42.497Z,8
2023-10-12T13:10:13.153Z,8
2023-10-12T13:12:46.817Z,4
2023-10-12T13:15:14.543Z,8
2023-10-12T13:17:45.006Z,4
2023-10-12T13:20:16.111Z,5
2023-10-12T13:22:46.729Z,4
2023-10-12T13:25:17.971Z,4
2023-10-12T13:27:48.974Z,4
2023-10-12T13:30:19.753Z,4
2023-10-12T13:32:50.642Z,4
2023-10-12T13:35:19.570Z,4
2023-10-12T13:37:49.809Z,4
2023-10-12T13:40:20.722Z,8
2023-10-12T13:42:51.464Z,8
2023-10-12T13:45:22.338Z,8
2023-10-12T13:47:53.411Z,8
2023-10-12T13:50:23.846Z,8
2023-10-12T13:52:54.300Z,5
2023-10-12T13:55:25.222Z,8
2023-10-12T13:57:55.753Z,8
2023-10-12T14:00:26.037Z,8
2023-10-12T14:02:56.886Z,8
2023-10-12T14:05:28.032Z,20
2023-10-12T14:07:58.500Z,16
2023-10-12T14:10:28.664Z,16
2023-10-12T14:12:59.128Z,8
2023-10-12T14:15:30.211Z,12
2023-10-12T14:18:01.125Z,8
2023-10-12T14:20:31.588Z,8
2023-10-12T14:23:02.528Z,11
2023-10-12T14:25:33.084Z,8
2023-10-12T14:28:03.411Z,9
2023-10-12T14:30:34.376Z,12
2023-10-12T14:33:05.442Z,12
2023-10-12T14:35:36.310Z,16
2023-10-12T14:38:06.744Z,12
2023-10-12T14:40:38.173Z,24
2023-10-12T14:43:08.460Z,16
2023-10-12T14:45:39.252Z,16
2023-10-12T14:48:09.862Z,20
2023-10-12T14:50:40.696Z,12
2023-10-12T14:53:11.057Z,16
2023-10-12T14:55:41.677Z,25
2023-10-12T14:58:12.072Z,30
2023-10-12T15:00:42.436Z,24
2023-10-12T15:03:12.927Z,24
2023-10-12T15:05:42.037Z,22
2023-10-12T15:08:12.823Z,23
2023-10-12T15:10:43.604Z,20
2023-10-12T15:13:13.959Z,16
2023-10-12T15:15:45.952Z,16
2023-10-12T15:18:14.845Z,16
2023-10-12T15:20:45.568Z,14
2023-10-12T15:23:15.953Z,14
2023-10-12T15:25:46.548Z,16
2023-10-12T15:28:17.034Z,16
2023-10-12T15:30:47.554Z,16
2023-10-12T15:33:18.055Z,19
2023-10-12T15:35:51.637Z,19
2023-10-12T15:38:21.906Z,15
2023-10-12T15:40:52.909Z,16
2023-10-12T15:43:23.511Z,20
2023-10-12T15:45:54.366Z,20
2023-10-12T15:48:25.214Z,16
2023-10-12T15:50:55.670Z,16
2023-10-12T15:53:26.480Z,15
2023-10-12T15:55:55.443Z,14
2023-10-12T15:58:24.392Z,16
2023-10-12T16:00:55.354Z,16
2023-10-12T16:03:26.292Z,12
2023-10-12T16:05:57.148Z,14
2023-10-12T16:08:27.549Z,14
2023-10-12T16:10:56.614Z,16
2023-10-12T16:13:27.955Z,16
2023-10-12T16:15:58.652Z,17
2023-10-12T16:18:29.327Z,17
2023-10-12T16:20:59.754Z,20
2023-10-12T16:23:33.467Z,25
2023-10-12T16:26:04.118Z,24
2023-10-12T16:28:34.362Z,25
2023-10-12T16:31:07.412Z,20
2023-10-12T16:33:35.230Z,20
2023-10-12T16:36:06.287Z,24
2023-10-12T16:38:37.250Z,20
2023-10-12T16:41:07.347Z,20
2023-10-12T16:43:37.646Z,20
2023-10-12T16:46:06.808Z,20
2023-10-12T16:48:36.913Z,24
2023-10-12T16:51:07.166Z,24
2023-10-12T16:53:37.629Z,23
2023-10-12T16:56:08.166Z,24
2023-10-12T16:58:42.592Z,24
2023-10-12T17:01:12.927Z,24
2023-10-12T17:03:43.915Z,24
2023-10-12T17:06:13.964Z,24
2023-10-12T17:08:44.821Z,24
2023-10-12T17:11:14.746Z,28
2023-10-12T17:13:45.026Z,28
2023-10-12T17:16:15.397Z,28
2023-10-12T17:18:45.722Z,28
2023-10-12T17:21:16.166Z,28
2023-10-12T17:23:46.227Z,24
2023-10-12T17:26:16.473Z,24
2023-10-12T17:28:47.226Z,27
2023-10-12T17:31:18.354Z,24
2023-10-12T17:33:48.495Z,24
2023-10-12T17:36:18.822Z,20
2023-10-12T17:38:49.535Z,24
2023-10-12T17:41:20.197Z,21
2023-10-12T17:43:50.304Z,24
2023-10-12T17:46:20.785Z,24
2023-10-12T17:48:51.157Z,24
2023-10-12T17:51:21.467Z,24
2023-10-12T17:53:52.595Z,24
2023-10-12T17:56:21.640Z,22
2023-10-12T17:58:52.405Z,24
2023-10-12T18:01:23.141Z,24
2023-10-12T18:03:53.746Z,32
2023-10-12T18:06:24.060Z,24
2023-10-12T18:08:54.547Z,28
2023-10-12T18:11:24.988Z,32
2023-10-12T18:13:55.022Z,28
2023-10-12T18:16:25.624Z,24
2023-10-12T18:18:55.976Z,28
2023-10-12T18:21:26.232Z,24
2023-10-12T18:23:56.790Z,27
2023-10-12T18:26:27.019Z,25
2023-10-12T18:28:58.531Z,26
2023-10-12T18:31:28.826Z,28
2023-10-12T18:33:59.691Z,24
2023-10-12T18:36:30.046Z,24
2023-10-12T18:39:00.270Z,24
2023-10-12T18:41:30.995Z,51
2023-10-12T18:44:01.363Z,28
2023-10-12T18:46:31.784Z,24
2023-10-12T18:49:02.751Z,24
2023-10-12T18:51:33.423Z,24
2023-10-12T18:54:04.228Z,24
2023-10-12T18:56:34.662Z,24
2023-10-12T18:59:05.400Z,24
2023-10-12T19:01:34.200Z,24
2023-10-12T19:04:04.733Z,24
2023-10-12T19:06:34.736Z,24
2023-10-12T19:09:05.086Z,28
2023-10-12T19:11:35.718Z,28
2023-10-12T19:14:05.853Z,32
2023-10-12T19:16:35.015Z,37
2023-10-12T19:19:05.369Z,37
2023-10-12T19:21:36.015Z,38
2023-10-12T19:24:06.585Z,38
2023-10-12T19:26:36.755Z,40
2023-10-12T19:29:05.652Z,32
2023-10-12T19:31:36.105Z,27
2023-10-12T19:34:06.555Z,28
2023-10-12T19:36:36.811Z,24
2023-10-12T19:39:07.510Z,24
2023-10-12T19:41:38.535Z,24
2023-10-12T19:44:08.819Z,25
2023-10-12T19:46:39.960Z,24
2023-10-12T19:49:10.793Z,24
2023-10-12T19:51:41.524Z,24
2023-10-12T19:54:11.705Z,24
2023-10-12T19:56:41.906Z,28
2023-10-12T19:59:12.344Z,26
2023-10-12T20:01:42.735Z,24
2023-10-12T20:04:13.601Z,24
2023-10-12T20:06:42.343Z,24
2023-10-12T20:09:12.855Z,24
2023-10-12T20:11:43.097Z,24
2023-10-12T20:14:13.740Z,20
2023-10-12T20:16:44.296Z,24
2023-10-12T20:19:14.781Z,24
2023-10-12T20:21:45.564Z,26
2023-10-12T20:24:15.961Z,24
2023-10-12T20:26:47.187Z,24
2023-10-12T20:29:17.652Z,24
2023-10-12T20:31:48.073Z,28
2023-10-12T20:34:18.738Z,28
2023-10-12T20:36:49.054Z,27
2023-10-12T20:39:19.505Z,24
2023-10-12T20:41:48.480Z,25
2023-10-12T20:44:19.664Z,24
2023-10-12T20:46:50.170Z,23
2023-10-12T20:49:20.550Z,23
2023-10-12T20:51:50.795Z,24
2023-10-12T20:54:21.149Z,20
2023-10-12T20:56:51.567Z,25
2023-10-12T20:59:23.310Z,24
2023-10-12T21:01:53.939Z,24
2023-10-12T21:04:24.472Z,24
2023-10-12T21:06:55.147Z,24
2023-10-12T21:09:25.139Z,24
2023-10-12T21:11:55.125Z,20
2023-10-12T21:14:26.272Z,24
2023-10-12T21:16:56.696Z,22
2023-10-12T21:19:27.308Z,21
2023-10-12T21:21:58.374Z,24
2023-10-12T21:24:28.673Z,23
2023-10-12T21:26:58.673Z,22
2023-10-12T21:29:28.567Z,24
2023-10-12T21:31:59.501Z,20
2023-10-12T21:34:30.476Z,20
2023-10-12T21:37:01.457Z,24
2023-10-12T21:39:31.744Z,24
2023-10-12T21:42:02.185Z,21
2023-10-12T21:44:32.871Z,23
2023-10-12T21:47:02.095Z,20
2023-10-12T21:49:33.215Z,20
2023-10-12T21:52:03.974Z,20
2023-10-12T21:54:34.423Z,21
2023-10-12T21:57:05.108Z,24
2023-10-12T21:59:35.963Z,20
2023-10-12T22:02:15.218Z,24
2023-10-12T22:04:38.298Z,20
2023-10-12T22:07:08.952Z,20
2023-10-12T22:09:39.588Z,21
2023-10-12T22:12:09.965Z,24
2023-10-12T22:14:40.432Z,24
2023-10-12T22:17:10.727Z,24
2023-10-12T22:19:41.110Z,24
2023-10-12T22:22:11.831Z,24
2023-10-12T22:24:42.726Z,24
2023-10-12T22:27:14.443Z,24
2023-10-12T22:29:43.717Z,24
2023-10-12T22:32:14.069Z,20
2023-10-12T22:34:44.427Z,24
2023-10-12T22:37:14.957Z,24
2023-10-12T22:39:45.564Z,24
2023-10-12T22:42:16.201Z,21
2023-10-12T22:44:47.005Z,24
2023-10-12T22:47:18.018Z,24
2023-10-12T22:49:48.751Z,24
2023-10-12T22:52:18.896Z,24
2023-10-12T22:54:50.244Z,24
2023-10-12T22:57:21.324Z,23
2023-10-12T22:59:51.861Z,24
2023-10-12T23:02:22.708Z,24
2023-10-12T23:04:54.248Z,24
2023-10-12T23:07:25.436Z,24
2023-10-12T23:09:55.882Z,24
2023-10-12T23:12:26.741Z,24
2023-10-12T23:14:57.262Z,20
2023-10-12T23:17:28.146Z,24
2023-10-12T23:19:58.741Z,20
2023-10-12T23:22:29.170Z,20
2023-10-12T23:24:59.809Z,20
2023-10-12T23:27:32.957Z,20
2023-10-12T23:30:00.968Z,24
2023-10-12T23:32:31.267Z,24
2023-10-12T23:35:02.320Z,20
2023-10-12T23:37:33.469Z,24
2023-10-12T23:40:03.943Z,21
2023-10-12T23:42:34.496Z,24
2023-10-12T23:45:05.264Z,21
2023-10-12T23:47:36.147Z,21
2023-10-12T23:50:07.396Z,20
2023-10-12T23:52:38.324Z,23
2023-10-12T23:55:08.799Z,24
2023-10-12T23:57:39.111Z,24
